sensor_id;sensor_type;location;lat;lon;timestamp;temperature;humidity
62154;DHT22;48140;45.486;9.226;2023-08-17T00:02:25;27.60;51.70
62154;DHT22;48140;45.486;9.226;2023-08-17T00:04:50;27.60;51.70
62154;DHT22;48140;45.486;9.226;2023-08-17T00:07:16;27.60;51.70
62154;DHT22;48140;45.486;9.226;2023-08-17T00:09:41;27.60;52.60
62154;DHT22;48140;45.486;9.226;2023-08-17T00:12:08;27.70;53.20
62154;DHT22;48140;45.486;9.226;2023-08-17T00:14:33;27.70;53.50
62154;DHT22;48140;45.486;9.226;2023-08-17T00:16:59;27.70;53.70
62154;DHT22;48140;45.486;9.226;2023-08-17T00:19:24;27.70;54.00
62154;DHT22;48140;45.486;9.226;2023-08-17T00:21:50;27.70;54.10
62154;DHT22;48140;45.486;9.226;2023-08-17T00:24:16;27.70;54.30
62154;DHT22;48140;45.486;9.226;2023-08-17T00:26:41;27.80;54.50
62154;DHT22;48140;45.486;9.226;2023-08-17T00:29:07;27.90;54.70
62154;DHT22;48140;45.486;9.226;2023-08-17T00:31:33;27.80;54.80
62154;DHT22;48140;45.486;9.226;2023-08-17T00:33:58;27.80;55.00
62154;DHT22;48140;45.486;9.226;2023-08-17T00:36:23;27.80;55.90
62154;DHT22;48140;45.486;9.226;2023-08-17T00:38:49;27.80;55.90
62154;DHT22;48140;45.486;9.226;2023-08-17T00:41:14;27.90;56.60
62154;DHT22;48140;45.486;9.226;2023-08-17T00:43:40;27.90;57.10
62154;DHT22;48140;45.486;9.226;2023-08-17T00:46:05;27.90;57.50
62154;DHT22;48140;45.486;9.226;2023-08-17T00:48:31;27.80;57.90
62154;DHT22;48140;45.486;9.226;2023-08-17T00:50:57;27.80;58.60
62154;DHT22;48140;45.486;9.226;2023-08-17T00:53:23;27.80;59.10
62154;DHT22;48140;45.486;9.226;2023-08-17T00:55:50;27.80;60.00
62154;DHT22;48140;45.486;9.226;2023-08-17T00:58:18;27.80;61.30
62154;DHT22;48140;45.486;9.226;2023-08-17T01:00:44;27.60;62.10
62154;DHT22;48140;45.486;9.226;2023-08-17T05:13:51;24.10;99.90
62154;DHT22;48140;45.486;9.226;2023-08-17T05:16:17;24.10;99.90
62154;DHT22;48140;45.486;9.226;2023-08-17T05:18:43;24.20;99.90
62154;DHT22;48140;45.486;9.226;2023-08-17T05:21:09;24.30;99.90
62154;DHT22;48140;45.486;9.226;2023-08-17T05:23:37;24.30;99.90
62154;DHT22;48140;45.486;9.226;2023-08-17T05:26:04;24.50;99.90
62154;DHT22;48140;45.486;9.226;2023-08-17T05:31:44;24.90;99.90
62154;DHT22;48140;45.486;9.226;2023-08-17T05:44:20;24.70;99.90
62154;DHT22;48140;45.486;9.226;2023-08-17T05:47:09;24.50;99.90
62154;DHT22;48140;45.486;9.226;2023-08-17T06:09:27;25.40;99.90
62154;DHT22;48140;45.486;9.226;2023-08-17T06:11:59;25.60;99.90
62154;DHT22;48140;45.486;9.226;2023-08-17T06:18:11;25.60;99.90
62154;DHT22;48140;45.486;9.226;2023-08-17T06:21:22;25.80;99.90
62154;DHT22;48140;45.486;9.226;2023-08-17T06:33:39;26.10;99.90
62154;DHT22;48140;45.486;9.226;2023-08-17T06:42:41;26.20;99.90
62154;DHT22;48140;45.486;9.226;2023-08-17T06:48:24;26.30;99.90
62154;DHT22;48140;45.486;9.226;2023-08-17T06:57:21;26.60;99.90
62154;DHT22;48140;45.486;9.226;2023-08-17T06:59:50;26.80;99.90
62154;DHT22;48140;45.486;9.226;2023-08-17T07:02:53;26.90;99.90
62154;DHT22;48140;45.486;9.226;2023-08-17T07:05:18;27.10;99.90
62154;DHT22;48140;45.486;9.226;2023-08-17T07:10:57;27.20;99.90
62154;DHT22;48140;45.486;9.226;2023-08-17T07:39:47;27.80;92.20
62154;DHT22;48140;45.486;9.226;2023-08-17T07:42:37;27.90;91.60
62154;DHT22;48140;45.486;9.226;2023-08-17T07:51:38;28.30;89.10
62154;DHT22;48140;45.486;9.226;2023-08-17T07:54:25;28.40;86.20
62154;DHT22;48140;45.486;9.226;2023-08-17T07:59:48;28.80;82.90
62154;DHT22;48140;45.486;9.226;2023-08-17T08:02:20;29.20;80.10
62154;DHT22;48140;45.486;9.226;2023-08-17T08:04:49;29.10;80.30
62154;DHT22;48140;45.486;9.226;2023-08-17T08:07:15;29.10;79.00
62154;DHT22;48140;45.486;9.226;2023-08-17T08:09:44;29.10;78.10
62154;DHT22;48140;45.486;9.226;2023-08-17T08:12:12;29.20;76.30
62154;DHT22;48140;45.486;9.226;2023-08-17T08:14:55;29.20;76.30
62154;DHT22;48140;45.486;9.226;2023-08-17T08:17:33;29.30;76.00
62154;DHT22;48140;45.486;9.226;2023-08-17T08:20:15;29.30;75.30
62154;DHT22;48140;45.486;9.226;2023-08-17T08:22:43;29.50;74.70
62154;DHT22;48140;45.486;9.226;2023-08-17T08:25:09;29.60;74.60
62154;DHT22;48140;45.486;9.226;2023-08-17T08:27:35;29.70;73.70
62154;DHT22;48140;45.486;9.226;2023-08-17T08:30:05;29.90;73.40
62154;DHT22;48140;45.486;9.226;2023-08-17T08:32:36;29.90;74.10
62154;DHT22;48140;45.486;9.226;2023-08-17T08:35:05;30.10;73.50
62154;DHT22;48140;45.486;9.226;2023-08-17T08:37:34;30.20;72.30
62154;DHT22;48140;45.486;9.226;2023-08-17T08:40:00;30.30;71.30
62154;DHT22;48140;45.486;9.226;2023-08-17T08:42:29;30.30;71.20
62154;DHT22;48140;45.486;9.226;2023-08-17T08:44:55;30.30;69.90
62154;DHT22;48140;45.486;9.226;2023-08-17T08:47:21;30.60;69.00
62154;DHT22;48140;45.486;9.226;2023-08-17T08:49:50;30.80;68.20
62154;DHT22;48140;45.486;9.226;2023-08-17T08:52:22;31.00;67.40
62154;DHT22;48140;45.486;9.226;2023-08-17T08:54:49;31.10;65.70
62154;DHT22;48140;45.486;9.226;2023-08-17T08:57:15;31.20;64.60
62154;DHT22;48140;45.486;9.226;2023-08-17T08:59:43;31.30;64.20
62154;DHT22;48140;45.486;9.226;2023-08-17T09:02:14;31.30;63.90
62154;DHT22;48140;45.486;9.226;2023-08-17T09:04:41;31.40;63.30
62154;DHT22;48140;45.486;9.226;2023-08-17T09:07:07;31.60;62.40
62154;DHT22;48140;45.486;9.226;2023-08-17T09:09:36;31.60;62.30
62154;DHT22;48140;45.486;9.226;2023-08-17T09:12:07;31.60;61.90
62154;DHT22;48140;45.486;9.226;2023-08-17T09:15:12;31.80;61.30
62154;DHT22;48140;45.486;9.226;2023-08-17T09:17:38;31.90;61.30
62154;DHT22;48140;45.486;9.226;2023-08-17T09:20:04;32.00;60.50
62154;DHT22;48140;45.486;9.226;2023-08-17T09:22:40;32.10;60.30
62154;DHT22;48140;45.486;9.226;2023-08-17T09:25:10;32.20;59.90
62154;DHT22;48140;45.486;9.226;2023-08-17T09:27:50;32.10;60.00
62154;DHT22;48140;45.486;9.226;2023-08-17T09:30:19;32.30;59.40
62154;DHT22;48140;45.486;9.226;2023-08-17T09:33:04;32.50;58.10
62154;DHT22;48140;45.486;9.226;2023-08-17T09:35:35;32.50;57.50
62154;DHT22;48140;45.486;9.226;2023-08-17T09:38:01;32.70;57.70
62154;DHT22;48140;45.486;9.226;2023-08-17T09:43:41;33.10;57.00
62154;DHT22;48140;45.486;9.226;2023-08-17T09:46:20;33.10;56.40
62154;DHT22;48140;45.486;9.226;2023-08-17T09:48:59;32.70;55.60
62154;DHT22;48140;45.486;9.226;2023-08-17T09:54:29;32.90;55.30
62154;DHT22;48140;45.486;9.226;2023-08-17T09:56:58;32.80;54.00
62154;DHT22;48140;45.486;9.226;2023-08-17T09:59:24;32.60;54.40
62154;DHT22;48140;45.486;9.226;2023-08-17T10:01:52;32.80;53.70
62154;DHT22;48140;45.486;9.226;2023-08-17T10:04:29;32.70;53.80
62154;DHT22;48140;45.486;9.226;2023-08-17T10:07:00;33.20;52.60
62154;DHT22;48140;45.486;9.226;2023-08-17T10:09:31;33.40;52.10
62154;DHT22;48140;45.486;9.226;2023-08-17T10:12:06;33.30;51.80
62154;DHT22;48140;45.486;9.226;2023-08-17T10:14:45;33.30;52.20
62154;DHT22;48140;45.486;9.226;2023-08-17T10:17:20;33.60;51.90
62154;DHT22;48140;45.486;9.226;2023-08-17T10:20:00;33.70;51.60
62154;DHT22;48140;45.486;9.226;2023-08-17T10:22:34;33.90;50.70
62154;DHT22;48140;45.486;9.226;2023-08-17T10:25:10;33.80;50.30
62154;DHT22;48140;45.486;9.226;2023-08-17T10:27:48;34.20;50.20
62154;DHT22;48140;45.486;9.226;2023-08-17T10:30:19;34.40;49.40
62154;DHT22;48140;45.486;9.226;2023-08-17T10:35:38;34.10;50.20
62154;DHT22;48140;45.486;9.226;2023-08-17T10:38:14;34.30;50.70
62154;DHT22;48140;45.486;9.226;2023-08-17T10:40:47;33.70;51.60
62154;DHT22;48140;45.486;9.226;2023-08-17T10:43:34;33.60;52.60
62154;DHT22;48140;45.486;9.226;2023-08-17T10:46:17;33.50;52.40
62154;DHT22;48140;45.486;9.226;2023-08-17T10:48:43;33.30;52.40
62154;DHT22;48140;45.486;9.226;2023-08-17T10:51:16;33.40;51.70
62154;DHT22;48140;45.486;9.226;2023-08-17T10:54:06;33.70;52.30
62154;DHT22;48140;45.486;9.226;2023-08-17T10:56:34;33.90;51.30
62154;DHT22;48140;45.486;9.226;2023-08-17T10:59:01;34.00;52.50
62154;DHT22;48140;45.486;9.226;2023-08-17T11:01:39;34.10;52.80
62154;DHT22;48140;45.486;9.226;2023-08-17T11:04:19;34.60;50.20
62154;DHT22;48140;45.486;9.226;2023-08-17T11:07:13;35.00;49.10
62154;DHT22;48140;45.486;9.226;2023-08-17T11:09:38;35.20;48.40
62154;DHT22;48140;45.486;9.226;2023-08-17T11:12:16;35.20;48.20
62154;DHT22;48140;45.486;9.226;2023-08-17T11:14:50;35.10;48.90
62154;DHT22;48140;45.486;9.226;2023-08-17T11:20:22;34.50;49.70
62154;DHT22;48140;45.486;9.226;2023-08-17T11:22:51;34.80;49.50
62154;DHT22;48140;45.486;9.226;2023-08-17T11:25:17;34.80;49.20
62154;DHT22;48140;45.486;9.226;2023-08-17T11:27:46;34.30;49.50
62154;DHT22;48140;45.486;9.226;2023-08-17T11:30:20;34.40;49.70
62154;DHT22;48140;45.486;9.226;2023-08-17T11:32:54;34.70;49.20
62154;DHT22;48140;45.486;9.226;2023-08-17T11:35:32;35.30;48.50
62154;DHT22;48140;45.486;9.226;2023-08-17T11:38:19;36.00;47.40
62154;DHT22;48140;45.486;9.226;2023-08-17T11:40:48;36.20;45.90
62154;DHT22;48140;45.486;9.226;2023-08-17T11:43:24;35.80;45.50
62154;DHT22;48140;45.486;9.226;2023-08-17T11:45:55;36.00;45.30
62154;DHT22;48140;45.486;9.226;2023-08-17T11:51:17;35.30;47.10
62154;DHT22;48140;45.486;9.226;2023-08-17T11:53:59;35.30;47.50
62154;DHT22;48140;45.486;9.226;2023-08-17T11:56:25;35.90;46.40
62154;DHT22;48140;45.486;9.226;2023-08-17T11:59:07;36.10;45.60
62154;DHT22;48140;45.486;9.226;2023-08-17T12:01:35;36.50;45.40
62154;DHT22;48140;45.486;9.226;2023-08-17T12:04:08;36.70;44.80
62154;DHT22;48140;45.486;9.226;2023-08-17T12:06:50;37.10;44.70
62154;DHT22;48140;45.486;9.226;2023-08-17T12:15:21;37.00;43.40
62154;DHT22;48140;45.486;9.226;2023-08-17T12:17:52;37.70;42.60
62154;DHT22;48140;45.486;9.226;2023-08-17T12:20:20;37.80;41.60
62154;DHT22;48140;45.486;9.226;2023-08-17T12:22:58;38.40;41.00
62154;DHT22;48140;45.486;9.226;2023-08-17T12:25:27;38.30;41.20
62154;DHT22;48140;45.486;9.226;2023-08-17T12:27:54;38.00;40.70
62154;DHT22;48140;45.486;9.226;2023-08-17T12:30:28;37.90;40.80
62154;DHT22;48140;45.486;9.226;2023-08-17T12:33:30;37.80;40.80
62154;DHT22;48140;45.486;9.226;2023-08-17T12:35:58;38.10;40.50
62154;DHT22;48140;45.486;9.226;2023-08-17T12:38:25;37.90;40.20
62154;DHT22;48140;45.486;9.226;2023-08-17T12:40:51;37.50;40.80
62154;DHT22;48140;45.486;9.226;2023-08-17T12:43:19;37.80;40.60
62154;DHT22;48140;45.486;9.226;2023-08-17T12:45:48;37.60;39.80
62154;DHT22;48140;45.486;9.226;2023-08-17T12:51:40;38.00;39.80
62154;DHT22;48140;45.486;9.226;2023-08-17T12:54:07;38.70;38.60
62154;DHT22;48140;45.486;9.226;2023-08-17T12:56:39;37.90;39.00
62154;DHT22;48140;45.486;9.226;2023-08-17T12:59:04;37.80;38.20
62154;DHT22;48140;45.486;9.226;2023-08-17T13:01:31;37.60;39.30
62154;DHT22;48140;45.486;9.226;2023-08-17T13:04:02;37.90;38.90
62154;DHT22;48140;45.486;9.226;2023-08-17T13:06:49;37.70;38.30
62154;DHT22;48140;45.486;9.226;2023-08-17T13:09:21;38.20;38.30
62154;DHT22;48140;45.486;9.226;2023-08-17T13:11:52;38.70;37.50
62154;DHT22;48140;45.486;9.226;2023-08-17T13:14:28;38.70;36.10
62154;DHT22;48140;45.486;9.226;2023-08-17T13:17:05;38.70;35.60
62154;DHT22;48140;45.486;9.226;2023-08-17T13:19:31;38.50;36.30
62154;DHT22;48140;45.486;9.226;2023-08-17T13:25:08;38.40;36.00
62154;DHT22;48140;45.486;9.226;2023-08-17T13:30:28;38.30;35.90
62154;DHT22;48140;45.486;9.226;2023-08-17T13:32:57;38.10;36.10
62154;DHT22;48140;45.486;9.226;2023-08-17T13:35:27;37.30;37.40
62154;DHT22;48140;45.486;9.226;2023-08-17T13:38:02;37.50;37.20
62154;DHT22;48140;45.486;9.226;2023-08-17T13:40:31;37.60;36.80
62154;DHT22;48140;45.486;9.226;2023-08-17T13:45:49;38.10;36.10
62154;DHT22;48140;45.486;9.226;2023-08-17T13:48:20;38.50;35.10
62154;DHT22;48140;45.486;9.226;2023-08-17T13:51:02;37.90;35.70
62154;DHT22;48140;45.486;9.226;2023-08-17T13:53:44;37.50;36.30
62154;DHT22;48140;45.486;9.226;2023-08-17T13:56:15;36.80;37.40
62154;DHT22;48140;45.486;9.226;2023-08-17T13:58:51;37.20;37.50
62154;DHT22;48140;45.486;9.226;2023-08-17T14:01:24;37.00;37.90
62154;DHT22;48140;45.486;9.226;2023-08-17T14:03:58;36.80;38.10
62154;DHT22;48140;45.486;9.226;2023-08-17T14:06:24;36.80;38.10
62154;DHT22;48140;45.486;9.226;2023-08-17T14:11:55;37.90;36.00
62154;DHT22;48140;45.486;9.226;2023-08-17T14:14:25;37.80;36.30
62154;DHT22;48140;45.486;9.226;2023-08-17T14:17:08;38.10;35.80
62154;DHT22;48140;45.486;9.226;2023-08-17T14:19:35;38.30;35.00
62154;DHT22;48140;45.486;9.226;2023-08-17T14:22:08;38.30;35.20
62154;DHT22;48140;45.486;9.226;2023-08-17T14:27:27;37.70;35.50
62154;DHT22;48140;45.486;9.226;2023-08-17T14:29:59;38.30;34.60
62154;DHT22;48140;45.486;9.226;2023-08-17T14:32:28;38.30;34.30
62154;DHT22;48140;45.486;9.226;2023-08-17T14:34:54;38.40;34.20
62154;DHT22;48140;45.486;9.226;2023-08-17T14:37:31;38.90;33.60
62154;DHT22;48140;45.486;9.226;2023-08-17T14:40:05;38.40;34.20
62154;DHT22;48140;45.486;9.226;2023-08-17T14:42:43;38.80;32.80
62154;DHT22;48140;45.486;9.226;2023-08-17T14:45:10;39.20;32.10
62154;DHT22;48140;45.486;9.226;2023-08-17T14:47:42;39.50;30.50
62154;DHT22;48140;45.486;9.226;2023-08-17T14:50:15;38.50;31.40
62154;DHT22;48140;45.486;9.226;2023-08-17T14:52:43;38.00;33.30
62154;DHT22;48140;45.486;9.226;2023-08-17T14:55:09;38.50;33.00
62154;DHT22;48140;45.486;9.226;2023-08-17T15:00:46;38.30;31.40
62154;DHT22;48140;45.486;9.226;2023-08-17T15:03:12;38.20;31.50
62154;DHT22;48140;45.486;9.226;2023-08-17T15:05:42;38.20;31.20
62154;DHT22;48140;45.486;9.226;2023-08-17T15:11:15;38.40;30.20
62154;DHT22;48140;45.486;9.226;2023-08-17T15:14:04;38.40;29.60
62154;DHT22;48140;45.486;9.226;2023-08-17T15:17:06;38.40;29.60
